Time;durP1;ratioP1;P1;durP2;ratioP2;P2;SDS_P1;SDS_P2;PMS_P1;PMS_P2;Temp;Humidity;BMP_temperature;BMP_pressure;BME280_temperature;BME280_humidity;BME280_pressure;Samples;Min_cycle;Max_cycle;Signal;HPM_P1;HPM_P2
2024/01/23 00:02:00;;;;;;;9.38;5.88;;;6.50;99.90;;;;;;4831431;29;20045;-83
2024/01/23 00:04:25;;;;;;;7.40;5.72;;;6.50;99.90;;;;;;4833686;29;20054;-81
2024/01/23 00:06:51;;;;;;;8.95;5.47;;;6.60;99.90;;;;;;4847211;29;20058;-82
2024/01/23 00:09:17;;;;;;;8.82;5.32;;;6.60;99.90;;;;;;4832528;29;20070;-82
2024/01/23 00:11:42;;;;;;;7.80;4.57;;;6.60;99.90;;;;;;4846875;29;20110;-81
2024/01/23 00:14:08;;;;;;;9.32;5.28;;;6.60;99.90;;;;;;4832181;29;20040;-82
2024/01/23 00:16:34;;;;;;;8.18;4.70;;;6.70;99.90;;;;;;4832128;29;20064;-82
2024/01/23 00:19:00;;;;;;;6.05;5.38;;;6.70;99.90;;;;;;4846921;29;20054;-83
2024/01/23 00:21:26;;;;;;;10.43;4.53;;;6.80;99.90;;;;;;4833156;29;20050;-83
2024/01/23 00:23:52;;;;;;;8.85;4.45;;;6.80;99.90;;;;;;4831279;29;20046;-80
2024/01/23 00:26:18;;;;;;;6.40;4.70;;;6.80;99.90;;;;;;4832579;29;20046;-81
2024/01/23 00:28:43;;;;;;;9.48;5.30;;;6.80;99.90;;;;;;4846715;29;20524;-82
2024/01/23 00:31:09;;;;;;;7.82;4.80;;;6.90;99.90;;;;;;4832071;29;20042;-85
2024/01/23 00:33:35;;;;;;;9.15;4.78;;;6.90;99.90;;;;;;4847828;29;20050;-85
2024/01/23 00:36:01;;;;;;;9.75;5.13;;;6.90;99.90;;;;;;4831485;29;20052;-81
2024/01/23 00:38:26;;;;;;;9.95;4.90;;;7.00;99.90;;;;;;4848329;29;20038;-86
2024/01/23 00:40:52;;;;;;;6.38;5.15;;;6.90;99.90;;;;;;4831062;29;20430;-82
2024/01/23 00:43:18;;;;;;;5.65;3.97;;;6.90;99.90;;;;;;4832765;29;20073;-81
2024/01/23 00:45:43;;;;;;;8.20;5.53;;;6.90;99.90;;;;;;4830867;29;20065;-80
2024/01/23 00:48:09;;;;;;;6.95;4.63;;;6.80;99.90;;;;;;4847066;29;20050;-81
2024/01/23 00:50:35;;;;;;;5.80;4.40;;;7.00;99.90;;;;;;4847425;29;20067;-80
2024/01/23 00:53:00;;;;;;;9.05;4.78;;;6.80;99.90;;;;;;4840215;29;20039;-82
2024/01/23 00:55:26;;;;;;;6.25;3.80;;;6.80;99.90;;;;;;4848262;29;20085;-81
2024/01/23 00:57:52;;;;;;;6.43;3.90;;;6.80;99.90;;;;;;4845973;29;20495;-82
2024/01/23 01:00:18;;;;;;;6.53;3.95;;;6.70;99.90;;;;;;4832399;29;20388;-83
2024/01/23 01:02:44;;;;;;;8.70;4.20;;;6.70;99.90;;;;;;4831333;29;20058;-82
2024/01/23 01:05:10;;;;;;;8.40;3.80;;;6.70;99.90;;;;;;4832415;29;20068;-82
2024/01/23 01:07:35;;;;;;;7.10;4.18;;;6.70;99.90;;;;;;4846906;29;20046;-83
2024/01/23 01:10:01;;;;;;;13.05;4.15;;;6.80;99.90;;;;;;4831745;29;20058;-78
2024/01/23 01:12:27;;;;;;;10.32;4.75;;;6.70;99.90;;;;;;4835451;29;20058;-86
2024/01/23 01:14:52;;;;;;;10.80;4.85;;;6.60;99.90;;;;;;4834303;29;20042;-82
2024/01/23 01:17:18;;;;;;;6.90;4.38;;;6.50;99.90;;;;;;4836537;29;20050;-84
2024/01/23 01:19:44;;;;;;;6.85;4.32;;;6.40;99.90;;;;;;4828624;29;20478;-80
2024/01/23 01:22:09;;;;;;;7.68;4.65;;;6.40;99.90;;;;;;4835765;29;20046;-85
2024/01/23 01:24:35;;;;;;;6.30;4.53;;;6.50;99.90;;;;;;4834918;29;20083;-82
2024/01/23 01:27:01;;;;;;;6.90;4.68;;;6.40;99.90;;;;;;4834793;29;20030;-84
2024/01/23 01:29:26;;;;;;;5.63;3.72;;;6.50;99.90;;;;;;4835696;29;20106;-83
2024/01/23 01:31:52;;;;;;;6.50;4.40;;;6.40;99.90;;;;;;4849612;29;20442;-83
2024/01/23 01:34:18;;;;;;;5.88;3.90;;;6.60;99.90;;;;;;4835870;29;20178;-82
2024/01/23 01:36:44;;;;;;;10.82;5.00;;;6.50;99.90;;;;;;4834095;29;20082;-86
2024/01/23 01:39:12;;;;;;;7.28;4.10;;;6.50;99.90;;;;;;4835176;29;20049;-80
2024/01/23 01:41:37;;;;;;;10.20;5.00;;;6.50;99.90;;;;;;4834604;29;20088;-83
2024/01/23 01:44:03;;;;;;;6.50;5.90;;;6.50;99.90;;;;;;4850006;29;20041;-85
2024/01/23 01:46:30;;;;;;;8.00;4.40;;;6.90;99.90;;;;;;4835275;29;20053;-83
2024/01/23 01:48:56;;;;;;;8.75;4.72;;;6.50;99.90;;;;;;4833841;29;20064;-84
2024/01/23 01:51:25;;;;;;;8.98;4.93;;;6.50;99.90;;;;;;4850676;29;20096;-81
2024/01/23 01:53:51;;;;;;;9.35;5.18;;;6.60;99.90;;;;;;4848686;29;20050;-82
2024/01/23 01:56:19;;;;;;;4.43;4.00;;;6.60;99.90;;;;;;4834953;29;20078;-83
2024/01/23 01:58:47;;;;;;;8.02;4.70;;;6.60;99.90;;;;;;4834122;29;20046;-79
2024/01/23 02:01:13;;;;;;;7.60;4.30;;;6.60;99.90;;;;;;4849612;29;20084;-83
2024/01/23 02:03:39;;;;;;;9.55;5.47;;;6.60;99.90;;;;;;4850500;29;20081;-83
2024/01/23 02:06:06;;;;;;;15.15;4.38;;;6.60;99.90;;;;;;4848894;29;20583;-84
2024/01/23 02:08:32;;;;;;;8.18;4.30;;;6.60;99.90;;;;;;4850677;29;20053;-81
2024/01/23 02:10:58;;;;;;;4.68;4.22;;;6.60;99.90;;;;;;4833911;29;20102;-81
2024/01/23 02:13:24;;;;;;;6.63;4.53;;;6.50;99.90;;;;;;4835343;29;20041;-81
2024/01/23 02:15:49;;;;;;;7.53;4.53;;;6.40;99.90;;;;;;4848954;29;20452;-82
2024/01/23 02:18:15;;;;;;;8.52;4.30;;;6.50;99.90;;;;;;4834250;29;20050;-82
2024/01/23 02:20:41;;;;;;;6.28;4.15;;;6.30;99.90;;;;;;4834799;29;20049;-81
2024/01/23 02:23:14;;;;;;;6.72;4.13;;;6.40;99.90;;;;;;4833041;29;20440;-81
2024/01/23 02:25:41;;;;;;;7.43;4.57;;;6.20;99.90;;;;;;4835231;29;20380;-79
2024/01/23 02:28:07;;;;;;;7.57;5.00;;;6.20;99.90;;;;;;4848995;29;20050;-80
2024/01/23 02:30:34;;;;;;;10.30;5.13;;;6.10;99.90;;;;;;4851398;29;20097;-84
2024/01/23 02:33:04;;;;;;;9.60;4.82;;;6.10;99.90;;;;;;4833956;29;20042;-83
2024/01/23 02:35:30;;;;;;;8.23;4.45;;;6.10;99.90;;;;;;4834071;29;20050;-81
2024/01/23 02:37:57;;;;;;;7.70;5.03;;;6.10;99.90;;;;;;4849858;29;20404;-81
2024/01/23 02:40:22;;;;;;;6.25;4.55;;;6.30;99.90;;;;;;4833129;29;20034;-84
2024/01/23 02:42:48;;;;;;;8.82;4.88;;;6.10;99.90;;;;;;4835245;29;20101;-83
2024/01/23 02:45:14;;;;;;;6.55;4.53;;;6.10;99.90;;;;;;4833415;29;20074;-80
2024/01/23 02:47:40;;;;;;;4.28;3.67;;;6.00;99.90;;;;;;4849550;29;20487;-82
2024/01/23 02:50:07;;;;;;;12.38;4.53;;;6.00;99.90;;;;;;4848077;29;20109;-81
2024/01/23 02:52:33;;;;;;;12.25;5.72;;;6.00;99.90;;;;;;4834174;29;20042;-81
2024/01/23 02:54:59;;;;;;;7.30;4.85;;;5.90;99.90;;;;;;4834066;29;20077;-80
2024/01/23 02:57:25;;;;;;;10.30;4.78;;;5.90;99.90;;;;;;4833504;29;20113;-81
2024/01/23 02:59:55;;;;;;;5.25;3.85;;;5.90;99.90;;;;;;4834615;29;20042;-80
2024/01/23 03:02:22;;;;;;;8.82;4.68;;;5.90;99.90;;;;;;4832657;29;20405;-81
2024/01/23 03:04:47;;;;;;;6.65;4.45;;;5.90;99.90;;;;;;4849699;29;20089;-82
2024/01/23 03:07:14;;;;;;;9.27;5.03;;;5.80;99.90;;;;;;4833543;29;20086;-81
2024/01/23 03:09:41;;;;;;;12.63;4.97;;;5.80;99.90;;;;;;4848869;29;20045;-86
2024/01/23 03:12:22;;;;;;;7.93;4.55;;;5.80;99.90;;;;;;4834339;29;20054;-81
2024/01/23 03:14:50;;;;;;;9.68;5.20;;;5.80;99.90;;;;;;4847926;29;20049;-81
2024/01/23 03:17:17;;;;;;;11.73;5.22;;;5.80;99.90;;;;;;4849861;29;20077;-82
2024/01/23 03:19:43;;;;;;;7.40;4.85;;;5.80;99.90;;;;;;4833099;29;20125;-80
2024/01/23 03:22:09;;;;;;;10.30;4.97;;;5.80;99.90;;;;;;4849119;29;20079;-85
2024/01/23 03:24:37;;;;;;;11.07;4.65;;;5.90;99.90;;;;;;4848176;29;20037;-82
2024/01/23 03:27:04;;;;;;;10.05;4.85;;;5.90;99.90;;;;;;4823782;29;20107;-82
2024/01/23 03:29:38;;;;;;;7.65;4.72;;;5.90;99.90;;;;;;4848851;29;20066;-81
2024/01/23 03:32:04;;;;;;;9.13;4.88;;;5.90;99.90;;;;;;4832204;29;20042;-85
2024/01/23 03:34:31;;;;;;;9.02;4.80;;;5.90;99.90;;;;;;4834811;29;20038;-82
2024/01/23 03:37:00;;;;;;;8.45;4.90;;;5.90;99.90;;;;;;4832395;29;20049;-82
2024/01/23 03:39:27;;;;;;;9.70;4.70;;;6.00;99.90;;;;;;4848371;29;20737;-81
2024/01/23 03:41:53;;;;;;;10.73;5.20;;;6.00;99.90;;;;;;4833039;29;20050;-81
2024/01/23 03:44:20;;;;;;;5.07;4.53;;;6.00;99.90;;;;;;4832650;29;20113;-82
2024/01/23 03:46:49;;;;;;;11.07;4.82;;;6.00;99.90;;;;;;4848881;29;20054;-83
2024/01/23 03:49:15;;;;;;;8.32;4.63;;;6.00;99.90;;;;;;4847949;29;20095;-81
2024/01/23 03:51:41;;;;;;;9.50;4.50;;;6.10;99.90;;;;;;4848816;29;20541;-80
2024/01/23 03:54:06;;;;;;;10.77;4.65;;;6.00;99.90;;;;;;4847623;29;20046;-84
2024/01/23 03:56:32;;;;;;;9.23;4.80;;;6.10;99.90;;;;;;4833238;29;20053;-82
2024/01/23 03:58:57;;;;;;;9.05;4.53;;;6.00;99.90;;;;;;4833340;29;20105;-81
2024/01/23 04:01:23;;;;;;;8.02;4.65;;;6.00;99.90;;;;;;4847576;29;20042;-81
2024/01/23 04:03:49;;;;;;;14.10;5.35;;;6.00;99.90;;;;;;4848604;29;20643;-83
2024/01/23 04:06:14;;;;;;;15.63;5.25;;;6.10;99.90;;;;;;4846862;29;20048;-81
2024/01/23 04:08:40;;;;;;;9.82;5.13;;;6.00;99.90;;;;;;4848811;29;20062;-82
2024/01/23 04:11:06;;;;;;;11.40;5.15;;;6.00;99.90;;;;;;4846908;29;20042;-83
2024/01/23 04:13:32;;;;;;;10.38;5.15;;;6.00;99.90;;;;;;4833179;29;20080;-81
2024/01/23 04:15:57;;;;;;;11.60;5.30;;;6.10;99.90;;;;;;4847720;29;20057;-81
2024/01/23 04:18:23;;;;;;;9.95;4.75;;;6.00;99.90;;;;;;4814866;29;20046;-82
2024/01/23 04:20:49;;;;;;;7.50;5.22;;;6.10;99.90;;;;;;4848339;29;20082;-81
2024/01/23 04:23:14;;;;;;;9.70;5.22;;;6.10;99.90;;;;;;4846891;29;20109;-84
2024/01/23 04:25:40;;;;;;;9.32;4.75;;;6.10;99.90;;;;;;4833640;29;20053;-81
2024/01/23 04:28:06;;;;;;;7.20;5.05;;;6.20;99.90;;;;;;4847215;29;20097;-83
2024/01/23 04:30:31;;;;;;;10.18;5.20;;;6.20;99.90;;;;;;4832669;29;20034;-82
2024/01/23 04:32:57;;;;;;;8.18;4.70;;;6.20;99.90;;;;;;4832514;29;20074;-79
2024/01/23 04:35:23;;;;;;;10.32;5.38;;;6.20;99.90;;;;;;4831795;29;20061;-80
2024/01/23 04:37:49;;;;;;;14.02;5.47;;;6.30;99.90;;;;;;4831055;29;20649;-82
2024/01/23 04:40:14;;;;;;;7.85;4.72;;;6.30;99.90;;;;;;4844958;29;20077;-83
2024/01/23 04:42:41;;;;;;;8.25;5.88;;;5.60;99.90;;;;;;4844434;29;20049;-81
2024/01/23 04:45:08;;;;;;;10.52;4.97;;;6.30;99.90;;;;;;4829321;29;20049;-83
2024/01/23 04:47:34;;;;;;;7.18;4.95;;;6.30;99.90;;;;;;4850137;29;20050;-80
2024/01/23 04:50:01;;;;;;;5.57;4.30;;;6.30;99.90;;;;;;4850541;29;20075;-81
2024/01/23 04:52:26;;;;;;;8.82;4.70;;;6.30;99.90;;;;;;4836230;29;20046;-80
2024/01/23 04:54:52;;;;;;;5.72;4.25;;;6.30;99.90;;;;;;4836291;29;20083;-80
2024/01/23 04:57:18;;;;;;;10.57;4.65;;;6.30;99.90;;;;;;4835711;29;20053;-84
2024/01/23 04:59:44;;;;;;;9.27;4.63;;;6.40;99.90;;;;;;4836244;29;20054;-84
2024/01/23 05:02:10;;;;;;;9.73;5.53;;;6.40;99.90;;;;;;4834426;29;20053;-80
2024/01/23 05:04:36;;;;;;;14.27;6.05;;;6.40;99.90;;;;;;4852088;29;20073;-81
2024/01/23 05:07:01;;;;;;;9.68;5.60;;;6.30;99.90;;;;;;4835288;29;20506;-82
2024/01/23 05:09:31;;;;;;;8.93;4.93;;;6.30;99.90;;;;;;4835619;29;20121;-83
2024/01/23 05:11:57;;;;;;;14.70;6.05;;;6.30;99.90;;;;;;4835583;29;20049;-81
2024/01/23 05:14:23;;;;;;;14.10;5.93;;;6.30;99.90;;;;;;4834979;29;20045;-81
2024/01/23 05:16:49;;;;;;;10.82;5.47;;;6.30;99.90;;;;;;4851486;29;20050;-81
2024/01/23 05:19:15;;;;;;;10.93;6.05;;;6.30;99.90;;;;;;4834447;29;20052;-82
2024/01/23 05:21:41;;;;;;;7.13;5.30;;;6.30;99.90;;;;;;4836755;29;20074;-85
2024/01/23 05:24:07;;;;;;;8.40;5.28;;;6.30;99.90;;;;;;4850371;29;20081;-81
2024/01/23 05:26:32;;;;;;;12.32;5.70;;;6.30;99.90;;;;;;4850543;29;20090;-82
2024/01/23 05:28:58;;;;;;;11.82;5.43;;;6.40;99.90;;;;;;4835092;29;20182;-83
2024/01/23 05:31:24;;;;;;;12.98;5.10;;;6.40;99.90;;;;;;4835286;29;20146;-81
2024/01/23 05:33:49;;;;;;;7.00;5.40;;;6.40;99.90;;;;;;4835823;29;20045;-81
2024/01/23 05:36:15;;;;;;;10.93;5.68;;;6.40;99.90;;;;;;4849274;29;20134;-81
2024/01/23 05:38:41;;;;;;;17.08;5.95;;;6.40;99.90;;;;;;4835698;29;20057;-84
2024/01/23 05:41:07;;;;;;;9.43;5.47;;;6.40;99.90;;;;;;4834768;29;20057;-81
2024/01/23 05:43:32;;;;;;;8.65;5.53;;;6.40;99.90;;;;;;4835833;29;20046;-80
2024/01/23 05:45:58;;;;;;;8.15;4.95;;;6.40;99.90;;;;;;4834382;29;20495;-84
2024/01/23 05:48:24;;;;;;;14.10;6.60;;;6.40;99.90;;;;;;4834400;29;20054;-83
2024/01/23 05:50:49;;;;;;;11.63;6.18;;;6.40;99.90;;;;;;4835468;29;20096;-83
2024/01/23 05:53:15;;;;;;;10.73;6.93;;;6.40;99.90;;;;;;4833856;29;20102;-84
2024/01/23 05:55:41;;;;;;;8.35;6.35;;;6.40;99.90;;;;;;4836021;29;20057;-82
2024/01/23 05:58:06;;;;;;;9.63;6.30;;;6.40;99.90;;;;;;4832669;29;20482;-83
2024/01/23 06:00:32;;;;;;;10.18;5.63;;;6.40;99.90;;;;;;4835255;29;20149;-81
2024/01/23 06:02:58;;;;;;;15.13;6.30;;;6.40;99.90;;;;;;4834494;29;20045;-81
2024/01/23 06:05:24;;;;;;;9.40;5.70;;;6.50;99.90;;;;;;4834942;29;20617;-80
2024/01/23 06:07:50;;;;;;;10.73;5.75;;;6.40;99.90;;;;;;4834460;29;20053;-85
2024/01/23 06:10:17;;;;;;;15.70;6.10;;;6.40;99.90;;;;;;4819052;29;20057;-82
2024/01/23 06:12:43;;;;;;;8.30;5.70;;;6.40;99.90;;;;;;4856821;29;20120;-81
2024/01/23 06:15:10;;;;;;;8.30;5.78;;;6.40;99.90;;;;;;4833570;29;20049;-79
2024/01/23 06:17:37;;;;;;;9.05;5.22;;;6.40;99.90;;;;;;4834536;29;20049;-82
2024/01/23 06:20:04;;;;;;;9.75;5.80;;;6.40;99.90;;;;;;4834281;29;20041;-81
2024/01/23 06:22:30;;;;;;;11.75;5.53;;;6.40;99.90;;;;;;4834505;29;20042;-80
2024/01/23 06:25:03;;;;;;;9.48;5.80;;;6.40;99.90;;;;;;4849692;29;20085;-83
2024/01/23 06:27:29;;;;;;;11.27;6.07;;;6.40;99.90;;;;;;4848591;29;20056;-82
2024/01/23 06:29:55;;;;;;;12.98;5.55;;;6.40;99.90;;;;;;4850221;29;20088;-83
2024/01/23 06:32:20;;;;;;;12.10;6.50;;;6.50;99.90;;;;;;4833220;29;20057;-83
2024/01/23 06:34:46;;;;;;;10.90;5.80;;;6.60;99.90;;;;;;4834888;29;20574;-84
2024/01/23 06:37:12;;;;;;;7.55;5.78;;;6.50;99.90;;;;;;4848778;29;20042;-82
2024/01/23 06:39:39;;;;;;;14.57;6.28;;;6.50;99.90;;;;;;4834004;29;20050;-83
2024/01/23 06:42:04;;;;;;;13.30;5.70;;;6.50;99.90;;;;;;4825160;29;20113;-82
2024/01/23 06:44:30;;;;;;;11.32;5.32;;;6.70;99.90;;;;;;4833875;29;20066;-82
2024/01/23 06:46:56;;;;;;;11.07;5.88;;;6.60;99.90;;;;;;4834496;29;20046;-81
2024/01/23 06:49:22;;;;;;;12.02;6.55;;;6.60;99.90;;;;;;4833591;29;20049;-81
2024/01/23 06:51:47;;;;;;;11.65;5.10;;;6.60;99.90;;;;;;4834234;29;20133;-82
2024/01/23 06:54:13;;;;;;;13.40;4.97;;;6.50;99.90;;;;;;4833620;29;20110;-82
2024/01/23 06:56:39;;;;;;;13.23;5.95;;;6.50;99.90;;;;;;4834368;29;20046;-82
2024/01/23 06:59:05;;;;;;;12.65;6.07;;;6.60;99.90;;;;;;4849172;29;20065;-82
2024/01/23 07:01:31;;;;;;;11.85;5.13;;;6.60;99.90;;;;;;4848219;29;20042;-81
2024/01/23 07:03:57;;;;;;;9.93;5.63;;;6.50;99.90;;;;;;4850227;29;20109;-84
2024/01/23 07:06:23;;;;;;;13.85;5.15;;;6.50;99.90;;;;;;4848300;29;20046;-82
2024/01/23 07:08:48;;;;;;;11.50;5.72;;;6.50;99.90;;;;;;4849463;29;20046;-83
2024/01/23 07:11:14;;;;;;;13.57;6.72;;;6.50;99.90;;;;;;4848397;29;20105;-80
2024/01/23 07:13:40;;;;;;;15.57;6.82;;;6.40;99.90;;;;;;4849442;29;20085;-80
2024/01/23 07:16:06;;;;;;;20.42;6.70;;;6.40;99.90;;;;;;4832968;29;20046;-84
2024/01/23 07:18:32;;;;;;;13.57;6.30;;;6.30;99.90;;;;;;4833283;29;20042;-83
2024/01/23 07:20:59;;;;;;;7.75;4.68;;;6.30;99.90;;;;;;4848805;29;20133;-81
2024/01/23 07:23:25;;;;;;;16.42;9.95;;;6.30;99.90;;;;;;4832442;29;20046;-81
2024/01/23 07:25:51;;;;;;;10.93;6.40;;;6.30;99.90;;;;;;4849764;29;20177;-81
2024/01/23 07:28:16;;;;;;;7.50;5.90;;;6.30;99.90;;;;;;4833149;29;20065;-81
2024/01/23 07:30:42;;;;;;;18.98;6.75;;;6.30;99.90;;;;;;4833480;29;20081;-79
2024/01/23 07:33:09;;;;;;;18.75;6.63;;;6.30;99.90;;;;;;4836594;29;20110;-82
2024/01/23 07:35:35;;;;;;;9.57;5.75;;;6.30;99.90;;;;;;4848411;29;20049;-81
2024/01/23 07:38:00;;;;;;;15.48;6.10;;;6.20;99.90;;;;;;4831922;29;20080;-80
2024/01/23 07:40:26;;;;;;;10.82;6.05;;;6.30;99.90;;;;;;4832162;29;20372;-81
2024/01/23 07:42:52;;;;;;;13.65;6.35;;;5.20;99.90;;;;;;4834505;29;20053;-81
2024/01/23 07:45:18;;;;;;;16.23;7.32;;;6.30;99.90;;;;;;4847384;29;20074;-83
2024/01/23 07:47:47;;;;;;;13.00;6.00;;;6.30;99.90;;;;;;4846172;29;20074;-80
2024/01/23 07:50:12;;;;;;;14.68;6.20;;;6.30;99.90;;;;;;4832739;29;20085;-80
2024/01/23 07:52:38;;;;;;;8.98;5.43;;;6.30;99.90;;;;;;4846186;29;20057;-81
2024/01/23 07:55:04;;;;;;;14.77;6.13;;;6.20;99.90;;;;;;4833669;29;20045;-82
2024/01/23 07:57:30;;;;;;;13.68;6.15;;;6.30;99.90;;;;;;4832418;29;20052;-81
2024/01/23 07:59:57;;;;;;;16.73;5.80;;;6.30;99.90;;;;;;4834042;29;20053;-81
2024/01/23 08:02:23;;;;;;;15.02;6.25;;;6.30;99.90;;;;;;4846803;29;20046;-82
2024/01/23 08:04:49;;;;;;;11.57;6.07;;;6.20;99.90;;;;;;4848812;29;20042;-83
2024/01/23 08:07:15;;;;;;;16.15;6.43;;;6.20;99.90;;;;;;4830568;29;20069;-84
2024/01/23 08:09:40;;;;;;;11.95;5.65;;;6.20;99.90;;;;;;4828645;29;20054;-81
2024/01/23 08:12:06;;;;;;;7.10;5.13;;;6.10;99.90;;;;;;4845976;29;20106;-82
2024/01/23 08:14:32;;;;;;;7.05;6.28;;;6.10;99.90;;;;;;4819193;29;20084;-80
2024/01/23 08:16:58;;;;;;;11.57;5.88;;;6.10;99.90;;;;;;4832171;29;20042;-81
2024/01/23 08:19:23;;;;;;;9.07;5.80;;;6.10;99.90;;;;;;4846078;29;20087;-80
2024/01/23 08:21:49;;;;;;;11.20;5.78;;;6.00;99.90;;;;;;4844825;29;20042;-82
2024/01/23 08:24:15;;;;;;;17.10;8.30;;;5.90;99.90;;;;;;4831768;29;20057;-82
2024/01/23 08:26:41;;;;;;;12.38;6.18;;;5.90;99.90;;;;;;4846685;29;20045;-83
2024/01/23 08:29:10;;;;;;;11.82;6.05;;;5.90;99.90;;;;;;4845929;29;20046;-82
2024/01/23 08:31:35;;;;;;;12.48;5.80;;;5.90;99.90;;;;;;4830958;29;20046;-85
2024/01/23 08:34:01;;;;;;;12.68;6.38;;;5.90;99.90;;;;;;4831860;29;20190;-84
2024/01/23 08:36:27;;;;;;;10.32;5.78;;;5.90;99.90;;;;;;4829877;29;20058;-81
2024/01/23 08:38:53;;;;;;;9.43;5.85;;;5.90;99.90;;;;;;4844721;29;20392;-85
2024/01/23 08:41:18;;;;;;;14.25;6.32;;;5.90;99.90;;;;;;4831008;29;20049;-83
2024/01/23 08:43:44;;;;;;;14.48;7.50;;;5.80;99.90;;;;;;4831389;29;20062;-81
2024/01/23 08:46:12;;;;;;;13.30;5.93;;;5.90;99.90;;;;;;4830705;29;20041;-80
2024/01/23 08:48:38;;;;;;;11.50;6.38;;;5.90;99.90;;;;;;4831208;29;20395;-81
2024/01/23 08:51:04;;;;;;;20.35;6.00;;;5.90;99.90;;;;;;4830812;29;20054;-83
2024/01/23 08:53:30;;;;;;;9.70;6.25;;;5.90;99.90;;;;;;4845586;29;20057;-80
2024/01/23 08:55:56;;;;;;;8.18;6.13;;;5.90;99.90;;;;;;4848031;29;20049;-80
2024/01/23 08:58:22;;;;;;;10.40;6.45;;;5.90;99.90;;;;;;4830393;29;20042;-81
2024/01/23 09:00:48;;;;;;;9.27;5.78;;;5.90;99.90;;;;;;4830675;29;20085;-81
2024/01/23 09:03:14;;;;;;;18.95;6.13;;;5.90;99.90;;;;;;4827289;29;20049;-81
2024/01/23 09:05:40;;;;;;;9.45;5.25;;;6.00;99.90;;;;;;4846320;29;20118;-80
2024/01/23 09:08:06;;;;;;;13.35;5.90;;;6.00;99.90;;;;;;4847184;29;20534;-81
2024/01/23 09:10:32;;;;;;;17.40;5.25;;;6.00;99.90;;;;;;4829575;29;20042;-80
2024/01/23 09:12:57;;;;;;;16.05;6.55;;;6.00;99.90;;;;;;4831481;29;20049;-82
2024/01/23 09:15:23;;;;;;;11.07;6.05;;;6.00;99.90;;;;;;4830291;29;20129;-81
2024/01/23 09:17:49;;;;;;;11.00;5.88;;;6.10;99.90;;;;;;4831607;29;20102;-84
2024/01/23 09:20:14;;;;;;;14.63;6.43;;;6.10;99.90;;;;;;4830987;29;20042;-79
2024/01/23 09:22:41;;;;;;;15.20;5.60;;;6.20;99.90;;;;;;4845468;29;20050;-80
2024/01/23 09:25:07;;;;;;;15.02;6.30;;;6.20;99.90;;;;;;4830916;29;20053;-83
2024/01/23 09:27:33;;;;;;;16.40;6.28;;;6.20;99.90;;;;;;4829799;29;20042;-80
2024/01/23 09:29:58;;;;;;;13.20;6.85;;;6.30;99.90;;;;;;4831271;29;20084;-80
2024/01/23 09:32:24;;;;;;;14.63;6.10;;;6.30;99.90;;;;;;4831719;29;20117;-79
2024/01/23 09:34:50;;;;;;;10.23;5.38;;;6.40;99.90;;;;;;4849356;29;20054;-80
2024/01/23 09:37:16;;;;;;;16.77;7.07;;;6.40;99.90;;;;;;4848418;29;20045;-80
2024/01/23 09:39:42;;;;;;;17.40;7.35;;;6.40;99.90;;;;;;4848249;29;20081;-81
2024/01/23 09:42:10;;;;;;;8.93;4.93;;;6.50;99.90;;;;;;4834196;29;20049;-80
2024/01/23 09:44:36;;;;;;;16.80;5.85;;;6.50;99.90;;;;;;4818929;29;20042;-81
2024/01/23 09:47:03;;;;;;;9.55;6.10;;;6.60;99.90;;;;;;4833707;29;20076;-80
2024/01/23 09:49:32;;;;;;;9.88;5.22;;;6.60;99.90;;;;;;4832043;29;20458;-81
2024/01/23 09:52:03;;;;;;;12.82;6.00;;;7.00;99.90;;;;;;4831929;29;20112;-82
2024/01/23 09:54:31;;;;;;;10.48;5.28;;;6.70;99.90;;;;;;4831944;29;20057;-81
2024/01/23 09:56:58;;;;;;;17.13;5.47;;;6.80;99.90;;;;;;4831995;29;20073;-82
2024/01/23 09:59:24;;;;;;;11.02;4.85;;;6.80;99.90;;;;;;4832978;29;20061;-80
2024/01/23 10:01:50;;;;;;;13.15;5.57;;;6.90;99.90;;;;;;4848062;29;20054;-82
2024/01/23 10:04:19;;;;;;;12.65;5.07;;;7.00;99.90;;;;;;4848604;29;20753;-81
2024/01/23 10:06:45;;;;;;;12.95;5.20;;;7.00;99.90;;;;;;4831039;29;20053;-83
2024/01/23 10:09:12;;;;;;;12.20;5.90;;;7.10;99.90;;;;;;4849718;29;20053;-81
2024/01/23 10:11:38;;;;;;;12.60;4.75;;;7.20;99.90;;;;;;4833401;29;20045;-82
2024/01/23 10:14:06;;;;;;;14.43;4.78;;;7.30;99.90;;;;;;4819997;29;20050;-81
2024/01/23 10:16:32;;;;;;;10.65;5.13;;;7.30;99.90;;;;;;4848244;29;20083;-80
2024/01/23 10:18:59;;;;;;;8.10;4.53;;;7.80;99.90;;;;;;4846288;29;20034;-81
2024/01/23 10:21:25;;;;;;;11.23;4.70;;;7.30;99.90;;;;;;4832912;29;20069;-80
2024/01/23 10:23:51;;;;;;;9.23;4.22;;;7.40;99.90;;;;;;4832496;29;20053;-79
2024/01/23 10:26:18;;;;;;;13.73;4.70;;;7.60;99.90;;;;;;4849322;29;20058;-82
2024/01/23 10:28:44;;;;;;;9.38;4.55;;;7.70;99.90;;;;;;4833075;29;20046;-80
2024/01/23 10:31:11;;;;;;;11.98;4.82;;;7.50;99.90;;;;;;4849175;29;20046;-80
2024/01/23 10:33:37;;;;;;;12.05;4.95;;;7.50;99.90;;;;;;4849733;29;20042;-79
2024/01/23 10:36:08;;;;;;;12.13;4.93;;;7.50;99.90;;;;;;4832324;29;20050;-80
2024/01/23 10:38:37;;;;;;;12.73;5.38;;;7.60;99.90;;;;;;4834110;29;20049;-82
2024/01/23 10:41:07;;;;;;;13.52;5.03;;;7.80;99.90;;;;;;4833493;29;20124;-80
2024/01/23 10:43:34;;;;;;;8.32;4.03;;;7.90;99.90;;;;;;4833348;29;20038;-81
2024/01/23 10:46:03;;;;;;;12.23;4.72;;;7.80;99.90;;;;;;4846898;29;20078;-79
2024/01/23 10:48:33;;;;;;;7.70;4.75;;;7.80;99.90;;;;;;4848251;29;20034;-79
2024/01/23 10:51:16;;;;;;;14.95;5.05;;;8.00;99.90;;;;;;4848428;29;20046;-82
2024/01/23 10:53:57;;;;;;;14.70;4.38;;;8.20;99.90;;;;;;4838964;29;20096;-80
2024/01/23 10:56:37;;;;;;;10.95;4.35;;;8.30;99.90;;;;;;4846810;29;20042;-82
2024/01/23 10:59:13;;;;;;;10.68;4.45;;;8.60;99.90;;;;;;4844722;29;20061;-84
2024/01/23 11:01:42;;;;;;;12.50;3.33;;;8.70;99.90;;;;;;4817263;29;20052;-82
2024/01/23 11:04:08;;;;;;;10.50;3.63;;;8.60;99.90;;;;;;4833889;29;20069;-81
2024/01/23 11:06:42;;;;;;;13.57;4.57;;;8.60;99.90;;;;;;4829279;29;20045;-80
2024/01/23 11:09:24;;;;;;;9.10;3.50;;;8.40;99.90;;;;;;4833836;29;20498;-79
2024/01/23 11:12:12;;;;;;;8.30;4.55;;;8.30;99.90;;;;;;4847854;29;20049;-82
2024/01/23 11:14:48;;;;;;;10.77;3.95;;;8.30;99.90;;;;;;4843112;29;20058;-81
2024/01/23 11:17:14;;;;;;;13.55;5.03;;;8.40;99.90;;;;;;4834470;29;20045;-80
2024/01/23 11:19:46;;;;;;;11.60;8.52;;;8.30;99.90;;;;;;4847558;29;20075;-82
2024/01/23 11:22:11;;;;;;;12.65;4.30;;;8.30;99.90;;;;;;4832291;29;20901;-81
2024/01/23 11:24:47;;;;;;;10.50;5.20;;;8.20;99.90;;;;;;4832624;29;20046;-83
2024/01/23 11:27:24;;;;;;;13.85;8.93;;;8.10;99.90;;;;;;4832258;29;20042;-80
2024/01/23 11:29:50;;;;;;;16.65;5.18;;;8.10;99.90;;;;;;4842751;29;20053;-80
2024/01/23 11:32:25;;;;;;;9.68;4.47;;;8.10;99.90;;;;;;4832171;29;20050;-82
2024/01/23 11:35:07;;;;;;;10.20;4.15;;;8.10;99.90;;;;;;4849140;29;20060;-80
2024/01/23 11:37:39;;;;;;;9.88;4.70;;;8.00;99.90;;;;;;4832524;29;20079;-83
2024/01/23 11:40:06;;;;;;;8.30;4.70;;;7.90;99.90;;;;;;4832177;29;20114;-83
2024/01/23 11:42:41;;;;;;;20.67;6.20;;;7.80;99.90;;;;;;4833530;29;20048;-79
2024/01/23 11:45:40;;;;;;;13.30;6.32;;;7.70;99.90;;;;;;4828278;29;20056;-79
2024/01/23 11:48:08;;;;;;;12.13;5.90;;;7.70;99.90;;;;;;4845159;29;20077;-82
2024/01/23 11:50:36;;;;;;;9.40;4.70;;;7.60;99.90;;;;;;4832860;29;20034;-79
2024/01/23 11:53:02;;;;;;;14.50;4.93;;;7.60;99.90;;;;;;4846928;29;20054;-81
2024/01/23 11:55:29;;;;;;;12.77;5.07;;;7.60;99.90;;;;;;4847494;29;20057;-82
2024/01/23 11:57:56;;;;;;;20.38;4.78;;;7.60;99.90;;;;;;4846694;29;20083;-80
2024/01/23 12:00:23;;;;;;;7.65;4.78;;;7.70;99.90;;;;;;4832580;29;20563;-82
2024/01/23 12:02:49;;;;;;;11.73;4.85;;;7.70;99.90;;;;;;4847416;29;20105;-79
2024/01/23 12:05:17;;;;;;;12.25;5.05;;;7.70;99.90;;;;;;4847500;29;20056;-80
2024/01/23 12:07:43;;;;;;;9.50;4.38;;;7.70;99.90;;;;;;4832831;29;20049;-80
2024/01/23 12:10:12;;;;;;;12.55;4.70;;;7.70;99.90;;;;;;4831891;29;20041;-80
2024/01/23 12:12:38;;;;;;;12.10;4.90;;;7.80;99.90;;;;;;4832486;29;20064;-80
2024/01/23 12:15:05;;;;;;;11.93;4.65;;;7.70;99.90;;;;;;4831786;29;20034;-79
2024/01/23 12:17:35;;;;;;;13.75;4.85;;;7.70;99.90;;;;;;4847926;29;20114;-79
2024/01/23 12:20:09;;;;;;;16.63;6.22;;;7.80;99.90;;;;;;4831590;29;20079;-82
2024/01/23 12:22:39;;;;;;;11.45;4.72;;;7.80;99.90;;;;;;4847375;29;20053;-80
2024/01/23 12:25:10;;;;;;;11.57;7.32;;;7.90;99.90;;;;;;4831527;29;20057;-83
2024/01/23 12:27:35;;;;;;;7.68;4.07;;;8.00;99.90;;;;;;4832050;29;20456;-80
2024/01/23 12:30:02;;;;;;;9.93;4.15;;;7.90;99.90;;;;;;4832881;29;20049;-81
2024/01/23 12:32:31;;;;;;;13.35;4.55;;;8.20;99.90;;;;;;4831191;29;20052;-81
2024/01/23 12:34:58;;;;;;;10.73;3.78;;;8.10;99.90;;;;;;4832625;29;20052;-82
2024/01/23 12:37:31;;;;;;;9.85;4.47;;;8.00;99.90;;;;;;4831359;29;20050;-84
2024/01/23 12:40:05;;;;;;;16.85;4.65;;;8.10;99.90;;;;;;4831569;29;20045;-82
2024/01/23 12:42:32;;;;;;;9.73;4.20;;;8.10;99.90;;;;;;4833020;29;20138;-81
2024/01/23 12:44:57;;;;;;;13.00;4.55;;;8.20;99.90;;;;;;4846754;29;20187;-80
2024/01/23 12:47:23;;;;;;;7.05;3.95;;;8.10;99.90;;;;;;4832035;29;20045;-81
2024/01/23 12:49:49;;;;;;;13.77;4.07;;;8.20;99.90;;;;;;4846817;29;20094;-81